Time;durP1;ratioP1;P1;durP2;ratioP2;P2;SDS_P1;SDS_P2;PMS_P1;PMS_P2;Temp;Humidity;BMP_temperature;BMP_pressure;BME280_temperature;BME280_humidity;BME280_pressure;Samples;Min_cycle;Max_cycle;Signal;HPM_P1;HPM_P2
2022/04/12 00:00:34;;;;;;;103.13;40.10;;;;;;;;;;6241077;28;20108;-61
2022/04/12 00:03:38;;;;;;;110.47;41.85;;;;;;;;;;6238012;28;20049;-60
2022/04/12 00:06:39;;;;;;;122.35;43.13;;;;;;;;;;6234004;28;20469;-60
2022/04/12 00:09:40;;;;;;;104.55;40.20;;;;;;;;;;6230969;28;20462;-62
2022/04/12 00:12:41;;;;;;;119.38;42.58;;;;;;;;;;6235217;28;20045;-63
2022/04/12 00:15:42;;;;;;;119.60;42.00;;;;;;;;;;6236823;28;20065;-59
2022/04/12 00:22:02;;;;;;;104.05;40.63;;;;;;;;;;6228128;28;20374;-62
2022/04/12 00:25:03;;;;;;;117.88;42.00;;;;;;;;;;6235618;28;20054;-60
2022/04/12 00:28:04;;;;;;;107.75;40.40;;;;;;;;;;6231905;28;20143;-60
2022/04/12 00:31:04;;;;;;;99.93;39.58;;;;;;;;;;6225521;28;20076;-61
2022/04/12 00:34:05;;;;;;;107.95;39.35;;;;;;;;;;6235595;28;20485;-60
2022/04/12 00:37:06;;;;;;;93.45;37.50;;;;;;;;;;6227387;28;20056;-60
2022/04/12 00:40:07;;;;;;;98.60;38.13;;;;;;;;;;6233206;28;20164;-62
2022/04/12 00:43:08;;;;;;;108.63;41.53;;;;;;;;;;6237043;28;20093;-60
2022/04/12 00:46:10;;;;;;;100.82;39.72;;;;;;;;;;6232856;28;20041;-61
2022/04/12 00:49:11;;;;;;;97.68;38.40;;;;;;;;;;6237710;28;20061;-61
2022/04/12 00:52:11;;;;;;;97.10;39.30;;;;;;;;;;6235909;28;20160;-61
2022/04/12 00:55:12;;;;;;;93.93;37.00;;;;;;;;;;6237966;28;20049;-64
2022/04/12 00:58:13;;;;;;;91.03;38.10;;;;;;;;;;6230934;28;20077;-62
2022/04/12 01:01:13;;;;;;;93.88;38.75;;;;;;;;;;6234396;28;20489;-61
2022/04/12 01:04:14;;;;;;;94.38;38.72;;;;;;;;;;6233905;28;20143;-60
2022/04/12 01:07:15;;;;;;;88.43;38.20;;;;;;;;;;6233300;28;20048;-59
2022/04/12 01:10:16;;;;;;;95.30;40.30;;;;;;;;;;6227504;28;20092;-60
2022/04/12 01:13:16;;;;;;;92.68;38.85;;;;;;;;;;6226507;28;20800;-60
2022/04/12 01:16:17;;;;;;;95.90;38.90;;;;;;;;;;6227492;28;20084;-60
2022/04/12 01:19:18;;;;;;;88.20;38.95;;;;;;;;;;6231720;28;20132;-60
2022/04/12 01:22:24;;;;;;;86.07;36.42;;;;;;;;;;6236387;28;20042;-61
2022/04/12 01:25:25;;;;;;;88.38;36.30;;;;;;;;;;6235043;28;20077;-60
2022/04/12 01:28:25;;;;;;;90.07;37.67;;;;;;;;;;6232598;28;20051;-60
2022/04/12 01:31:27;;;;;;;88.45;37.08;;;;;;;;;;6233820;28;20052;-60
2022/04/12 01:34:28;;;;;;;87.40;35.53;;;;;;;;;;6226468;28;20046;-60
2022/04/12 01:37:29;;;;;;;80.73;32.20;;;;;;;;;;6227944;28;20768;-60
2022/04/12 01:40:29;;;;;;;87.88;33.65;;;;;;;;;;6228587;28;20133;-61
2022/04/12 01:43:30;;;;;;;85.45;34.83;;;;;;;;;;6238241;28;20053;-62
2022/04/12 01:46:30;;;;;;;96.90;34.97;;;;;;;;;;6234666;28;20488;-60
2022/04/12 01:49:31;;;;;;;92.50;34.55;;;;;;;;;;6227014;28;20054;-61
2022/04/12 01:52:33;;;;;;;88.60;36.45;;;;;;;;;;6237700;28;20076;-58
2022/04/12 01:55:34;;;;;;;89.93;36.70;;;;;;;;;;6225272;28;20049;-62
2022/04/12 01:58:36;;;;;;;86.25;35.00;;;;;;;;;;6236216;28;20149;-60
2022/04/12 02:01:36;;;;;;;76.15;33.63;;;;;;;;;;6225911;28;20081;-61
2022/04/12 02:04:37;;;;;;;92.30;36.95;;;;;;;;;;6228092;28;20046;-63
2022/04/12 02:07:38;;;;;;;84.93;35.58;;;;;;;;;;6227276;28;20485;-60
2022/04/12 02:10:38;;;;;;;85.63;34.13;;;;;;;;;;6228019;28;20051;-59
2022/04/12 02:13:39;;;;;;;87.50;35.25;;;;;;;;;;6227049;28;20532;-64
2022/04/12 02:16:39;;;;;;;83.82;33.83;;;;;;;;;;6232136;28;20767;-61
2022/04/12 02:19:40;;;;;;;86.15;36.25;;;;;;;;;;6226617;28;20140;-61
2022/04/12 02:22:40;;;;;;;90.22;35.53;;;;;;;;;;6227748;28;20196;-61
2022/04/12 02:25:41;;;;;;;92.50;35.67;;;;;;;;;;6227193;28;20493;-60
2022/04/12 02:28:42;;;;;;;83.35;36.10;;;;;;;;;;6235774;28;20469;-61
2022/04/12 02:31:42;;;;;;;90.57;38.47;;;;;;;;;;6224666;28;20489;-60
2022/04/12 02:34:43;;;;;;;99.82;39.80;;;;;;;;;;6231942;28;20132;-61
2022/04/12 02:37:44;;;;;;;94.65;36.78;;;;;;;;;;6231642;28;20045;-60
2022/04/12 02:40:44;;;;;;;86.50;37.50;;;;;;;;;;6227224;28;20061;-63
2022/04/12 02:43:45;;;;;;;82.78;36.40;;;;;;;;;;6221859;28;20450;-61
2022/04/12 02:46:45;;;;;;;96.10;38.80;;;;;;;;;;6237692;28;20435;-61
2022/04/12 02:49:46;;;;;;;90.45;37.22;;;;;;;;;;6241335;28;20054;-62
2022/04/12 02:52:46;;;;;;;91.85;38.58;;;;;;;;;;6234623;28;20050;-61
2022/04/12 02:55:47;;;;;;;88.57;38.10;;;;;;;;;;6234601;28;20056;-61
2022/04/12 02:58:48;;;;;;;91.30;37.72;;;;;;;;;;6239711;28;20041;-63
2022/04/12 03:01:48;;;;;;;86.28;38.05;;;;;;;;;;6241364;28;20045;-61
2022/04/12 03:04:49;;;;;;;99.50;38.85;;;;;;;;;;6224629;28;20068;-60
2022/04/12 03:07:50;;;;;;;91.72;37.83;;;;;;;;;;6231753;28;20050;-61
2022/04/12 03:10:50;;;;;;;89.32;38.78;;;;;;;;;;6231659;28;20054;-61
2022/04/12 03:13:52;;;;;;;94.80;41.00;;;;;;;;;;6236207;28;20137;-61
2022/04/12 03:16:52;;;;;;;92.07;38.33;;;;;;;;;;6221624;28;20104;-60
2022/04/12 03:19:53;;;;;;;82.90;38.13;;;;;;;;;;6234554;28;20447;-61
2022/04/12 03:22:54;;;;;;;87.07;38.25;;;;;;;;;;6241198;28;20662;-62
2022/04/12 03:25:54;;;;;;;93.13;38.38;;;;;;;;;;6229204;28;20046;-59
2022/04/12 03:28:55;;;;;;;87.00;38.00;;;;;;;;;;6237116;28;20045;-64
2022/04/12 03:31:56;;;;;;;91.53;38.58;;;;;;;;;;6238071;28;20042;-60
2022/04/12 03:34:56;;;;;;;88.03;38.60;;;;;;;;;;6229635;28;20137;-59
2022/04/12 03:38:01;;;;;;;95.78;37.72;;;;;;;;;;6238496;28;20056;-61
2022/04/12 03:41:03;;;;;;;88.43;39.22;;;;;;;;;;6242975;28;20171;-62
2022/04/12 03:44:04;;;;;;;86.22;39.22;;;;;;;;;;6236411;28;20081;-64
2022/04/12 03:47:04;;;;;;;85.07;37.78;;;;;;;;;;6241705;28;20041;-60
2022/04/12 03:50:06;;;;;;;93.72;37.45;;;;;;;;;;6234842;28;20042;-61
2022/04/12 03:53:07;;;;;;;100.72;42.47;;;;;;;;;;6236451;28;20049;-60
2022/04/12 03:56:08;;;;;;;105.72;42.40;;;;;;;;;;6240228;28;20053;-60
2022/04/12 03:59:09;;;;;;;95.20;42.38;;;;;;;;;;6235521;28;20137;-60
2022/04/12 04:02:10;;;;;;;97.93;43.33;;;;;;;;;;6234127;28;20054;-60
2022/04/12 04:05:10;;;;;;;95.05;41.08;;;;;;;;;;6235208;28;20583;-60
2022/04/12 04:08:11;;;;;;;92.38;41.33;;;;;;;;;;6235841;28;20080;-60
2022/04/12 04:11:11;;;;;;;97.10;42.42;;;;;;;;;;6239702;28;20141;-62
2022/04/12 04:14:14;;;;;;;98.00;42.92;;;;;;;;;;6226228;28;20484;-60
2022/04/12 04:17:14;;;;;;;105.85;44.40;;;;;;;;;;6235953;28;20045;-61
2022/04/12 04:20:17;;;;;;;99.80;42.60;;;;;;;;;;6237095;28;20060;-60
2022/04/12 04:23:18;;;;;;;103.30;41.20;;;;;;;;;;6239056;28;20155;-62
2022/04/12 04:26:18;;;;;;;100.55;42.50;;;;;;;;;;6230451;28;20124;-62
2022/04/12 04:29:19;;;;;;;115.35;47.50;;;;;;;;;;6227438;28;20753;-61
2022/04/12 04:32:20;;;;;;;109.57;49.15;;;;;;;;;;6226915;28;20065;-59
2022/04/12 04:35:21;;;;;;;110.90;46.38;;;;;;;;;;6235045;28;20519;-60
2022/04/12 04:38:21;;;;;;;150.30;52.10;;;;;;;;;;6240199;28;20520;-59
2022/04/12 04:41:22;;;;;;;116.35;46.53;;;;;;;;;;6236652;28;20141;-62
2022/04/12 04:44:23;;;;;;;117.22;46.75;;;;;;;;;;6236753;28;20481;-62
2022/04/12 04:47:23;;;;;;;116.57;50.10;;;;;;;;;;6236349;28;20480;-62
2022/04/12 04:50:26;;;;;;;109.75;45.60;;;;;;;;;;6237924;28;20050;-61
2022/04/12 04:53:26;;;;;;;;;;;;;;;;;;6232469;28;20057;-63
2022/04/12 04:56:28;;;;;;;115.00;47.55;;;;;;;;;;6221333;28;19921;-62
2022/04/12 04:59:28;;;;;;;106.78;46.75;;;;;;;;;;6238875;28;20051;-62
2022/04/12 05:02:29;;;;;;;118.63;50.50;;;;;;;;;;6240477;28;20041;-62
2022/04/12 05:05:30;;;;;;;103.18;47.35;;;;;;;;;;6251537;28;20564;-61
2022/04/12 05:08:30;;;;;;;109.97;49.17;;;;;;;;;;6236522;28;20041;-63
2022/04/12 05:11:31;;;;;;;108.60;50.30;;;;;;;;;;6234459;28;20634;-64
2022/04/12 05:14:32;;;;;;;109.32;47.58;;;;;;;;;;6233482;28;20042;-64
2022/04/12 05:17:32;;;;;;;113.28;49.70;;;;;;;;;;6239673;28;20135;-63
2022/04/12 05:20:33;;;;;;;109.50;49.45;;;;;;;;;;6232248;28;20092;-63
2022/04/12 05:23:34;;;;;;;107.78;48.60;;;;;;;;;;6233105;28;20042;-62
2022/04/12 05:26:35;;;;;;;112.82;50.20;;;;;;;;;;6229917;28;20539;-62
2022/04/12 05:29:36;;;;;;;128.05;58.70;;;;;;;;;;6232822;28;20132;-62
2022/04/12 05:32:37;;;;;;;123.28;55.58;;;;;;;;;;6231728;28;20084;-62
2022/04/12 05:35:38;;;;;;;138.15;61.15;;;;;;;;;;6227814;28;20417;-61
2022/04/12 05:38:39;;;;;;;136.38;60.90;;;;;;;;;;6225812;28;20544;-63
2022/04/12 05:41:39;;;;;;;142.68;66.28;;;;;;;;;;6228582;28;20084;-62
2022/04/12 05:44:40;;;;;;;149.70;66.75;;;;;;;;;;6238306;28;20132;-62
2022/04/12 05:47:46;;;;;;;143.95;66.38;;;;;;;;;;6240254;28;20140;-61
2022/04/12 05:50:46;;;;;;;135.88;61.33;;;;;;;;;;6229814;28;20050;-62
2022/04/12 05:53:47;;;;;;;122.18;54.80;;;;;;;;;;6229644;28;20077;-62
2022/04/12 05:56:47;;;;;;;105.82;48.90;;;;;;;;;;6230052;28;20052;-62
2022/04/12 05:59:49;;;;;;;110.45;48.83;;;;;;;;;;6233053;28;20099;-64
2022/04/12 06:02:51;;;;;;;108.10;49.95;;;;;;;;;;6230388;28;20084;-64
2022/04/12 06:05:53;;;;;;;102.75;45.70;;;;;;;;;;6251083;28;20152;-63
2022/04/12 06:08:54;;;;;;;106.28;48.13;;;;;;;;;;6232167;28;20049;-62
2022/04/12 06:11:54;;;;;;;105.40;48.30;;;;;;;;;;6236118;28;20049;-63
2022/04/12 06:14:55;;;;;;;100.60;44.78;;;;;;;;;;6233303;28;20053;-62
2022/04/12 06:17:56;;;;;;;94.18;44.63;;;;;;;;;;6233493;28;20061;-63
2022/04/12 06:20:57;;;;;;;88.57;39.72;;;;;;;;;;6232830;28;20494;-62
2022/04/12 06:23:57;;;;;;;60.85;28.45;;;;;;;;;;6235110;28;20080;-62
2022/04/12 06:26:58;;;;;;;59.47;28.88;;;;;;;;;;6242145;28;20092;-64
2022/04/12 06:30:06;;;;;;;60.47;27.23;;;;;;;;;;6231009;28;20125;-62
2022/04/12 06:33:07;;;;;;;62.17;27.95;;;;;;;;;;6239610;28;20049;-64
2022/04/12 06:36:08;;;;;;;53.67;26.35;;;;;;;;;;6229722;28;20053;-72
2022/04/12 06:39:09;;;;;;;56.03;27.17;;;;;;;;;;6235116;28;20046;-63
2022/04/12 06:42:09;;;;;;;58.20;26.30;;;;;;;;;;6233325;28;20060;-64
2022/04/12 06:45:13;;;;;;;55.80;25.55;;;;;;;;;;6230907;28;20054;-63
2022/04/12 06:48:13;;;;;;;55.33;25.40;;;;;;;;;;6233898;28;20108;-56
2022/04/12 06:51:14;;;;;;;47.85;22.48;;;;;;;;;;6236918;28;20054;-62
2022/04/12 06:54:15;;;;;;;49.22;22.90;;;;;;;;;;6233053;28;20134;-59
2022/04/12 06:57:16;;;;;;;45.78;19.88;;;;;;;;;;6230484;28;20135;-64
2022/04/12 07:00:18;;;;;;;41.88;19.55;;;;;;;;;;6233354;28;20788;-65
2022/04/12 07:03:18;;;;;;;42.05;19.90;;;;;;;;;;6233790;28;20064;-62
2022/04/12 07:06:19;;;;;;;47.05;21.33;;;;;;;;;;6229908;28;20128;-62
2022/04/12 07:09:23;;;;;;;39.25;19.77;;;;;;;;;;6234585;28;20054;-62
2022/04/12 07:12:24;;;;;;;40.90;19.17;;;;;;;;;;6231585;28;20504;-65
2022/04/12 07:15:25;;;;;;;32.78;15.05;;;;;;;;;;6231561;28;20149;-63
2022/04/12 07:18:25;;;;;;;29.80;14.88;;;;;;;;;;6231719;28;20049;-63
2022/04/12 07:21:29;;;;;;;29.17;14.07;;;;;;;;;;6233647;28;20068;-62
2022/04/12 07:24:29;;;;;;;29.10;13.77;;;;;;;;;;6228950;28;20057;-64
2022/04/12 07:27:36;;;;;;;28.92;14.30;;;;;;;;;;6230553;28;20136;-63
2022/04/12 07:30:38;;;;;;;31.58;15.52;;;;;;;;;;6229577;28;20049;-63
2022/04/12 07:33:39;;;;;;;29.80;14.23;;;;;;;;;;6233053;28;20049;-64
2022/04/12 07:36:43;;;;;;;29.23;13.70;;;;;;;;;;6229080;28;20110;-61
2022/04/12 07:39:44;;;;;;;23.33;10.75;;;;;;;;;;6232238;28;20072;-62
2022/04/12 07:42:44;;;;;;;17.15;7.70;;;;;;;;;;6233174;28;20084;-60
2022/04/12 07:45:45;;;;;;;19.27;8.13;;;;;;;;;;6231000;28;20061;-60
2022/04/12 07:48:46;;;;;;;18.00;8.35;;;;;;;;;;6233550;28;20144;-61
2022/04/12 07:51:47;;;;;;;19.73;8.40;;;;;;;;;;6231580;28;20594;-63
2022/04/12 07:54:47;;;;;;;22.05;9.82;;;;;;;;;;6231030;28;20180;-63
2022/04/12 07:57:48;;;;;;;24.38;9.38;;;;;;;;;;6230387;28;20099;-64
2022/04/12 08:00:49;;;;;;;17.25;8.70;;;;;;;;;;6232375;28;20049;-63
2022/04/12 08:03:50;;;;;;;18.05;8.30;;;;;;;;;;6233414;28;20087;-63
2022/04/12 08:06:51;;;;;;;19.15;8.23;;;;;;;;;;6229165;28;20065;-63
2022/04/12 08:09:51;;;;;;;19.13;9.30;;;;;;;;;;6233700;28;20376;-60
2022/04/12 08:12:52;;;;;;;21.48;10.27;;;;;;;;;;6233132;28;20168;-61
2022/04/12 08:15:53;;;;;;;20.65;9.13;;;;;;;;;;6231010;28;20405;-64
2022/04/12 08:18:55;;;;;;;19.75;9.15;;;;;;;;;;6234185;28;20061;-61
2022/04/12 08:21:55;;;;;;;19.23;9.23;;;;;;;;;;6232966;28;20721;-62
2022/04/12 08:24:56;;;;;;;25.83;10.82;;;;;;;;;;6228991;28;20059;-61
2022/04/12 08:27:57;;;;;;;16.70;9.05;;;;;;;;;;6230798;28;20049;-63
2022/04/12 08:30:58;;;;;;;17.73;7.88;;;;;;;;;;6231519;28;20055;-63
2022/04/12 08:33:59;;;;;;;18.55;7.75;;;;;;;;;;6229654;28;20551;-63
2022/04/12 08:37:02;;;;;;;28.10;14.48;;;;;;;;;;6229015;28;20075;-63
2022/04/12 08:40:05;;;;;;;15.85;7.60;;;;;;;;;;6232570;28;20129;-63
2022/04/12 08:43:07;;;;;;;16.63;7.85;;;;;;;;;;6231067;28;20060;-64
2022/04/12 08:46:08;;;;;;;29.20;12.30;;;;;;;;;;6228917;28;20057;-63
2022/04/12 08:49:10;;;;;;;12.23;5.72;;;;;;;;;;6231491;28;20049;-63
2022/04/12 08:52:13;;;;;;;11.98;5.72;;;;;;;;;;6232528;28;20168;-62
2022/04/12 08:55:13;;;;;;;19.80;9.43;;;;;;;;;;6227900;28;21023;-63
2022/04/12 08:58:14;;;;;;;17.90;7.68;;;;;;;;;;6231503;28;20050;-63
2022/04/12 09:01:15;;;;;;;14.15;7.30;;;;;;;;;;6232467;28;20491;-63
2022/04/12 09:04:16;;;;;;;15.40;6.85;;;;;;;;;;6231653;28;20507;-62
2022/04/12 09:07:25;;;;;;;17.13;7.28;;;;;;;;;;6228871;28;20235;-63
2022/04/12 09:10:36;;;;;;;12.65;6.18;;;;;;;;;;6231663;28;20073;-63
2022/04/12 09:13:37;;;;;;;15.80;7.28;;;;;;;;;;6232522;28;20103;-64
2022/04/12 09:16:44;;;;;;;12.35;6.65;;;;;;;;;;6229283;28;20152;-64
2022/04/12 09:19:51;;;;;;;13.23;5.70;;;;;;;;;;6231913;28;20092;-63
2022/04/12 09:22:55;;;;;;;10.93;6.20;;;;;;;;;;6232260;28;20053;-65
2022/04/12 09:25:55;;;;;;;12.90;7.38;;;;;;;;;;6244118;28;20057;-63
2022/04/12 09:29:00;;;;;;;15.73;7.68;;;;;;;;;;6230647;28;20079;-66
2022/04/12 09:32:00;;;;;;;11.15;6.63;;;;;;;;;;6232644;28;20102;-64
2022/04/12 09:35:01;;;;;;;13.60;6.45;;;;;;;;;;6229769;28;20070;-63
2022/04/12 09:38:02;;;;;;;23.02;10.65;;;;;;;;;;6228051;28;20057;-62
2022/04/12 09:41:23;;;;;;;15.10;6.85;;;;;;;;;;6231918;28;20053;-63
2022/04/12 09:44:23;;;;;;;15.13;6.78;;;;;;;;;;6229906;28;20057;-63
2022/04/12 09:47:44;;;;;;;13.88;6.35;;;;;;;;;;6229633;28;20139;-63
2022/04/12 09:50:45;;;;;;;13.43;6.45;;;;;;;;;;6229775;28;20077;-64
2022/04/12 09:53:46;;;;;;;13.32;6.53;;;;;;;;;;6231403;28;20106;-65
2022/04/12 09:56:48;;;;;;;12.88;6.50;;;;;;;;;;6228812;28;20052;-63
2022/04/12 09:59:49;;;;;;;;;;;;;;;;;;6226609;28;20053;-65
2022/04/12 10:02:50;;;;;;;13.25;6.50;;;;;;;;;;6228459;28;19978;-63
2022/04/12 10:05:51;;;;;;;14.23;7.10;;;;;;;;;;6228840;28;20080;-62
2022/04/12 10:09:13;;;;;;;16.15;6.97;;;;;;;;;;6228020;28;20079;-65
2022/04/12 10:12:14;;;;;;;13.68;7.13;;;;;;;;;;6227740;28;20049;-64
2022/04/12 10:15:14;;;;;;;14.13;6.78;;;;;;;;;;6228130;28;20125;-63
2022/04/12 10:18:20;;;;;;;11.43;6.38;;;;;;;;;;6229547;28;20525;-67
2022/04/12 10:21:22;;;;;;;12.38;6.38;;;;;;;;;;6228301;28;20053;-64
2022/04/12 10:24:24;;;;;;;12.05;6.47;;;;;;;;;;6228935;28;20507;-64
2022/04/12 10:27:25;;;;;;;13.17;6.53;;;;;;;;;;6230065;28;20053;-63
2022/04/12 10:30:28;;;;;;;14.65;6.53;;;;;;;;;;6229120;28;20057;-65
2022/04/12 10:33:29;;;;;;;13.20;6.25;;;;;;;;;;6228668;28;20045;-64
2022/04/12 10:36:59;;;;;;;13.32;6.57;;;;;;;;;;6226635;28;20064;-64
2022/04/12 10:40:04;;;;;;;11.10;6.30;;;;;;;;;;6230090;28;20050;-62
2022/04/12 10:43:05;;;;;;;11.18;6.10;;;;;;;;;;6228766;28;20073;-63
2022/04/12 10:46:08;;;;;;;10.93;6.40;;;;;;;;;;6228457;28;20099;-62
2022/04/12 10:49:13;;;;;;;11.90;6.60;;;;;;;;;;6228523;28;20488;-63
2022/04/12 10:52:14;;;;;;;14.85;6.85;;;;;;;;;;6230531;28;20484;-64
2022/04/12 10:55:15;;;;;;;14.57;6.90;;;;;;;;;;6225562;28;20053;-63
2022/04/12 10:58:30;;;;;;;12.10;6.57;;;;;;;;;;6229120;28;20088;-65
2022/04/12 11:01:33;;;;;;;11.00;6.28;;;;;;;;;;6229614;28;20140;-61
2022/04/12 11:04:33;;;;;;;14.18;6.90;;;;;;;;;;6229481;28;20136;-61
2022/04/12 11:07:36;;;;;;;12.55;6.75;;;;;;;;;;6233458;28;20052;-62
2022/04/12 11:10:36;;;;;;;11.48;6.25;;;;;;;;;;6233579;28;20049;-62
2022/04/12 11:13:37;;;;;;;11.15;6.25;;;;;;;;;;6233926;28;20050;-62
2022/04/12 11:16:48;;;;;;;12.00;6.45;;;;;;;;;;6232428;28;20045;-62
2022/04/12 11:19:51;;;;;;;15.23;6.68;;;;;;;;;;6234935;28;20093;-63
2022/04/12 11:22:56;;;;;;;11.30;6.65;;;;;;;;;;6232112;28;20583;-64
2022/04/12 11:26:36;;;;;;;13.50;7.32;;;;;;;;;;6230826;28;20049;-62
2022/04/12 11:29:40;;;;;;;14.05;7.30;;;;;;;;;;6232801;28;20095;-64
2022/04/12 11:32:41;;;;;;;14.75;8.70;;;;;;;;;;6232152;28;20046;-64
2022/04/12 11:35:42;;;;;;;13.68;6.68;;;;;;;;;;6227170;28;20060;-64
2022/04/12 11:38:42;;;;;;;12.60;7.18;;;;;;;;;;6230150;28;20042;-63
2022/04/12 11:41:43;;;;;;;12.80;7.28;;;;;;;;;;6232145;28;20053;-65
2022/04/12 11:44:55;;;;;;;15.73;7.35;;;;;;;;;;6232698;28;20141;-63
2022/04/12 11:47:57;;;;;;;13.02;6.55;;;;;;;;;;6233294;28;20068;-63
2022/04/12 11:51:05;;;;;;;15.60;7.05;;;;;;;;;;6234692;28;20057;-63
2022/04/12 11:54:22;;;;;;;18.38;7.10;;;;;;;;;;6235235;28;20096;-62
2022/04/12 11:57:24;;;;;;;13.07;7.25;;;;;;;;;;6230858;28;20160;-64
2022/04/12 12:00:26;;;;;;;12.77;7.18;;;;;;;;;;6232272;28;20749;-62
2022/04/12 12:03:28;;;;;;;12.88;7.32;;;;;;;;;;6234097;28;20045;-65
2022/04/12 12:06:28;;;;;;;16.58;8.05;;;;;;;;;;6628525;23;20997;-66
2022/04/12 12:09:30;;;;;;;13.65;7.50;;;;;;;;;;6017845;23;20050;-67
2022/04/12 12:12:37;;;;;;;11.68;7.10;;;;;;;;;;6201451;28;20046;-68
2022/04/12 12:15:38;;;;;;;17.15;7.47;;;;;;;;;;6192485;28;20131;-68
2022/04/12 12:18:39;;;;;;;13.15;7.70;;;;;;;;;;6188951;28;20930;-66
2022/04/12 12:21:44;;;;;;;14.27;7.32;;;;;;;;;;6194051;28;20046;-67
2022/04/12 12:24:56;;;;;;;14.20;7.45;;;;;;;;;;6197842;28;20084;-67
2022/04/12 12:27:57;;;;;;;;;;;;;;;;;;6190033;28;20088;-68
2022/04/12 12:31:03;;;;;;;11.20;6.28;;;;;;;;;;6190449;28;19921;-68
2022/04/12 12:34:03;;;;;;;15.02;7.45;;;;;;;;;;6191012;28;20050;-69
2022/04/12 12:37:08;;;;;;;12.73;6.85;;;;;;;;;;6187597;28;20069;-69
2022/04/12 12:40:36;;;;;;;12.32;7.88;;;;;;;;;;6188994;28;20136;-69
2022/04/12 12:43:37;;;;;;;13.60;8.57;;;;;;;;;;6185691;28;20062;-67
2022/04/12 12:46:38;;;;;;;15.85;7.00;;;;;;;;;;6192477;28;21180;-68
2022/04/12 12:49:41;;;;;;;14.82;8.88;;;;;;;;;;6191296;28;20050;-63
2022/04/12 12:52:45;;;;;;;13.27;7.55;;;;;;;;;;6191537;28;20069;-63
2022/04/12 12:55:49;;;;;;;16.70;8.27;;;;;;;;;;6188127;28;20149;-63
2022/04/12 12:59:17;;;;;;;13.88;7.82;;;;;;;;;;6192210;28;20597;-62
2022/04/12 13:02:17;;;;;;;14.23;8.32;;;;;;;;;;6191752;28;20054;-62
2022/04/12 13:05:19;;;;;;;15.02;7.93;;;;;;;;;;6193266;28;21252;-64
2022/04/12 13:08:24;;;;;;;12.57;7.87;;;;;;;;;;6193734;28;20276;-65
2022/04/12 13:11:25;;;;;;;17.35;7.60;;;;;;;;;;6191410;28;20608;-62
2022/04/12 13:14:25;;;;;;;19.23;8.77;;;;;;;;;;6186929;28;20064;-63
2022/04/12 13:17:26;;;;;;;15.55;8.32;;;;;;;;;;6182653;28;20056;-62
2022/04/12 13:20:26;;;;;;;15.05;9.13;;;;;;;;;;6188403;28;20100;-62
2022/04/12 13:23:27;;;;;;;16.88;9.43;;;;;;;;;;6187361;28;20054;-62
2022/04/12 13:26:27;;;;;;;16.75;9.45;;;;;;;;;;6186027;28;20052;-62
2022/04/12 13:29:28;;;;;;;19.60;9.77;;;;;;;;;;6185629;28;20038;-61
2022/04/12 13:32:29;;;;;;;17.13;8.50;;;;;;;;;;6182731;28;20057;-63
2022/04/12 13:35:30;;;;;;;14.82;8.48;;;;;;;;;;6162602;28;20034;-61
2022/04/12 13:38:30;;;;;;;16.88;8.73;;;;;;;;;;6187623;28;20050;-66
2022/04/12 13:41:31;;;;;;;17.45;8.70;;;;;;;;;;6188939;28;20053;-62
2022/04/12 13:44:36;;;;;;;19.65;8.75;;;;;;;;;;6186879;28;20042;-63
2022/04/12 13:47:37;;;;;;;21.38;9.25;;;;;;;;;;6191556;28;20711;-65
2022/04/12 13:50:37;;;;;;;16.38;8.45;;;;;;;;;;6186090;28;20050;-65
2022/04/12 13:53:38;;;;;;;18.20;9.18;;;;;;;;;;6188403;28;20062;-62
2022/04/12 13:56:38;;;;;;;14.27;7.72;;;;;;;;;;6185908;28;20038;-62
2022/04/12 13:59:39;;;;;;;17.85;9.50;;;;;;;;;;6185688;28;20097;-63
2022/04/12 14:02:40;;;;;;;16.88;9.20;;;;;;;;;;6188929;28;20042;-61
2022/04/12 14:05:41;;;;;;;19.15;9.90;;;;;;;;;;6190735;28;20074;-61
2022/04/12 14:08:41;;;;;;;16.15;9.25;;;;;;;;;;6189531;28;20141;-61
2022/04/12 14:11:43;;;;;;;16.38;9.60;;;;;;;;;;6185882;28;20501;-61
2022/04/12 14:14:43;;;;;;;17.10;9.18;;;;;;;;;;6188804;28;20575;-60
2022/04/12 14:17:44;;;;;;;18.23;8.85;;;;;;;;;;6185031;28;20076;-61
2022/04/12 14:20:45;;;;;;;22.05;9.63;;;;;;;;;;6193984;28;20577;-69
2022/04/12 14:23:46;;;;;;;21.30;9.83;;;;;;;;;;6187148;28;20204;-68
2022/04/12 14:26:46;;;;;;;20.10;10.13;;;;;;;;;;6188460;28;20304;-63
2022/04/12 14:29:50;;;;;;;17.08;9.85;;;;;;;;;;6182756;28;20061;-61
2022/04/12 14:32:50;;;;;;;15.27;9.18;;;;;;;;;;6184811;28;20050;-61
2022/04/12 14:35:51;;;;;;;18.00;9.57;;;;;;;;;;6178423;28;20053;-60
2022/04/12 14:38:52;;;;;;;20.85;10.25;;;;;;;;;;6183848;28;20503;-62
2022/04/12 14:41:53;;;;;;;17.83;8.98;;;;;;;;;;6191337;28;20116;-62
2022/04/12 14:44:53;;;;;;;20.75;9.45;;;;;;;;;;6192234;28;20058;-63
2022/04/12 14:47:54;;;;;;;16.17;9.13;;;;;;;;;;6195265;28;20058;-62
2022/04/12 14:50:55;;;;;;;31.20;11.30;;;;;;;;;;6195127;28;20062;-62
2022/04/12 14:53:56;;;;;;;34.33;14.30;;;;;;;;;;6195031;28;20058;-61
2022/04/12 14:56:57;;;;;;;26.90;12.70;;;;;;;;;;6196197;28;20057;-64
2022/04/12 15:00:00;;;;;;;28.42;12.07;;;;;;;;;;6192194;28;20052;-61
2022/04/12 15:03:00;;;;;;;47.08;15.68;;;;;;;;;;6191044;28;20471;-64
2022/04/12 15:06:01;;;;;;;38.38;11.35;;;;;;;;;;6197137;28;20109;-62
2022/04/12 15:09:03;;;;;;;21.52;10.80;;;;;;;;;;6190183;28;20139;-61
2022/04/12 15:12:04;;;;;;;17.27;10.82;;;;;;;;;;6194881;28;20050;-65
2022/04/12 15:15:09;;;;;;;19.42;9.48;;;;;;;;;;6189287;28;20059;-64
2022/04/12 15:18:10;;;;;;;19.33;9.88;;;;;;;;;;6195865;28;20425;-61
2022/04/12 15:21:11;;;;;;;20.88;9.90;;;;;;;;;;6198925;28;20045;-61
2022/04/12 15:24:12;;;;;;;17.85;9.30;;;;;;;;;;6190249;28;20089;-61
2022/04/12 15:27:13;;;;;;;19.95;10.43;;;;;;;;;;6190577;28;20108;-63
2022/04/12 15:30:14;;;;;;;22.25;11.30;;;;;;;;;;6187074;28;20093;-65
2022/04/12 15:33:14;;;;;;;19.40;11.05;;;;;;;;;;6190334;28;20123;-60
2022/04/12 15:36:15;;;;;;;19.00;10.20;;;;;;;;;;6192335;28;20050;-60
2022/04/12 15:39:16;;;;;;;17.45;9.15;;;;;;;;;;6197395;28;20708;-60
2022/04/12 15:42:16;;;;;;;73.70;33.53;;;;;;;;;;6192946;28;20477;-60
2022/04/12 15:45:18;;;;;;;20.83;11.25;;;;;;;;;;6191908;28;20049;-61
2022/04/12 15:48:22;;;;;;;20.15;11.10;;;;;;;;;;6169361;28;20053;-61
2022/04/12 15:51:23;;;;;;;21.25;11.75;;;;;;;;;;6194276;28;21409;-63
2022/04/12 15:54:24;;;;;;;17.13;9.68;;;;;;;;;;6194816;28;20065;-62
2022/04/12 15:57:25;;;;;;;20.25;10.68;;;;;;;;;;6189321;28;20760;-61
2022/04/12 16:00:27;;;;;;;19.85;10.98;;;;;;;;;;6188789;28;20145;-63
2022/04/12 16:03:28;;;;;;;18.38;10.88;;;;;;;;;;6192444;28;20042;-60
2022/04/12 16:06:30;;;;;;;24.77;10.80;;;;;;;;;;6191785;28;20077;-62
2022/04/12 16:09:31;;;;;;;18.67;10.20;;;;;;;;;;6193475;28;20046;-62
2022/04/12 16:12:32;;;;;;;22.23;10.70;;;;;;;;;;6192897;28;20042;-61
2022/04/12 16:15:32;;;;;;;20.40;11.63;;;;;;;;;;6197454;28;20074;-60
2022/04/12 16:18:33;;;;;;;22.00;10.65;;;;;;;;;;6187887;28;20046;-60
2022/04/12 16:21:33;;;;;;;20.65;11.35;;;;;;;;;;6192567;28;20568;-61
2022/04/12 16:24:34;;;;;;;26.90;18.40;;;;;;;;;;6193417;28;20248;-61
2022/04/12 16:27:35;;;;;;;27.38;15.75;;;;;;;;;;6189435;28;20471;-60
2022/04/12 16:30:36;;;;;;;21.83;13.07;;;;;;;;;;6191376;28;20824;-63
2022/04/12 16:33:36;;;;;;;34.65;15.73;;;;;;;;;;6197574;28;20058;-62
2022/04/12 16:36:37;;;;;;;28.08;13.40;;;;;;;;;;6189583;28;20105;-62
2022/04/12 16:39:38;;;;;;;26.58;12.02;;;;;;;;;;6193990;28;20540;-61
2022/04/12 16:42:39;;;;;;;23.40;12.13;;;;;;;;;;6190245;28;20132;-60
2022/04/12 16:45:40;;;;;;;42.07;16.00;;;;;;;;;;6198445;28;20606;-60
2022/04/12 16:48:40;;;;;;;53.90;21.13;;;;;;;;;;6197136;28;20140;-62
2022/04/12 16:51:41;;;;;;;43.65;17.15;;;;;;;;;;6194084;28;20141;-61
2022/04/12 16:54:42;;;;;;;47.38;19.27;;;;;;;;;;6201036;28;20056;-60
2022/04/12 16:57:42;;;;;;;78.05;29.70;;;;;;;;;;6193729;28;20488;-60
2022/04/12 17:00:43;;;;;;;121.10;45.08;;;;;;;;;;6187437;28;20128;-63
2022/04/12 17:03:45;;;;;;;154.43;54.33;;;;;;;;;;6189795;28;20058;-61
2022/04/12 17:06:45;;;;;;;144.30;52.70;;;;;;;;;;6171454;28;20181;-62
2022/04/12 17:09:47;;;;;;;141.65;54.42;;;;;;;;;;6190598;28;20122;-62
2022/04/12 17:12:48;;;;;;;74.75;31.45;;;;;;;;;;6189234;28;20606;-64
2022/04/12 17:15:48;;;;;;;57.97;28.67;;;;;;;;;;6190458;28;20053;-61
2022/04/12 17:18:49;;;;;;;43.40;23.67;;;;;;;;;;6188347;28;20085;-65
2022/04/12 17:21:50;;;;;;;44.97;25.50;;;;;;;;;;6188251;28;20057;-65
2022/04/12 17:24:50;;;;;;;55.60;29.17;;;;;;;;;;6189758;28;20112;-61
2022/04/12 17:27:51;;;;;;;56.25;30.77;;;;;;;;;;6188301;28;20132;-61
2022/04/12 17:30:52;;;;;;;54.85;30.05;;;;;;;;;;6187878;28;20054;-63
2022/04/12 17:33:52;;;;;;;57.75;28.17;;;;;;;;;;6188469;28;20536;-64
2022/04/12 17:36:53;;;;;;;48.08;23.55;;;;;;;;;;6190193;28;20056;-62
2022/04/12 17:39:54;;;;;;;41.90;23.80;;;;;;;;;;6191450;28;20100;-62
2022/04/12 17:42:55;;;;;;;108.00;38.95;;;;;;;;;;6194460;28;20061;-66
2022/04/12 17:45:55;;;;;;;81.93;29.33;;;;;;;;;;6188795;28;20103;-63